South Milwaukee, WI (53172)

1:12 AM CDT on August 29, 2015 (GMT -0500)
South Milwaukee | | Change Station
CLOSE
Current Station
Personal Weather Station
Location: South Milwaukee, WI
Elevation: 687 ft
Nearby Weather Stations

Elev 687 ft 42.91 °N, 87.88 °W | Updated 47 seconds ago

Rain
Rain
62.8 °F
Feels Like 62.8 °F
N
1.0
Wind Variable Wind from East
Gusts 2.0 mph

Today
High -- | Low -- °F
--% Chance of Precip.
Yesterday
High -- | Low -- °F
Precip. -- in
6:12 AM 7:31 PM
Full, 100% visible
Pressure 30.06 in
Visibility 2.0 miles
Clouds Scattered Clouds 300 ft
Mostly Cloudy 8500 ft
Overcast 10000 ft
Dew Point 62 °F
Humidity 98%
Rainfall 0.11 in
Snow Depth Not available.
UV 0 out of 12
Pollen 5.60 out of 12
Air Quality Not available.
Flu Activity Not available.
METAR KMKE 290552Z 11013KT 2SM RA BR SCT003 BKN085 OVC100 17/16 A3007 RMK AO2 TWR VIS 3 SLP180 P0008 60010 T01720161 10194 20161 402330133 58013
Pressure 30.06 in
Visibility 2.0 miles
Clouds Scattered Clouds 300 ft
Mostly Cloudy 8500 ft
Overcast 10000 ft
Dew Point 62 °F
Humidity 98%
Rainfall 0.11 in
Snow Depth Not available.
UV 0 out of 12
Pollen 5.60 out of 12
Air Quality Not available.
Flu Activity Not available.
METAR KMKE 290552Z 11013KT 2SM RA BR SCT003 BKN085 OVC100 17/16 A3007 RMK AO2 TWR VIS 3 SLP180 P0008 60010 T01720161 10194 20161 402330133 58013

10-Day Weather Forecast

×

Almanac

Astronomy

Aug. 29, 2015 Rise Set
Actual Time
Civil Twilight
Nautical Twilight
Astronomical Twilight
Moon
Length of Visible Light
Length of Day
Tomorrow will be .
, % of the Moon is Illuminated

Today's Extremes

State Highs State Lows

Community

WunderPhotos

Upload Photos

1,850,622 photos uploaded!

WunderBlogs® & News

Nearby

Air Quality

  Air Quality AQ Index Pollutant
Not available.

Snow Depth

Station Depth Elevation

Earthquake Activity

City Distance Mag. Time & Date
Minimum magnitude displayed is 2.5.

Coastal Water Temperatures

Place Temperature

Stations

Nearby Weather Stations

Station Location Temp. Windchill Dew Point Humidity Wind Precip. Elev Updated Type